createdAt,value
2022-10-24T00:06:50.094Z,99991.73
2022-10-24T00:16:53.633Z,99978.14
2022-10-24T00:26:56.915Z,99983.03
2022-10-24T00:37:03.950Z,99996.42
2022-10-24T00:47:25.778Z,100002.20
2022-10-24T00:57:40.402Z,99990.77
2022-10-24T01:08:08.286Z,99977.27
2022-10-24T01:18:28.704Z,99964.67
2022-10-24T01:28:46.115Z,99942.39
2022-10-24T01:38:56.726Z,99939.70
2022-10-24T01:49:11.482Z,99938.17
2022-10-24T01:59:30.384Z,99927.17
2022-10-24T02:09:38.106Z,99915.48
2022-10-24T02:19:45.142Z,99900.80
2022-10-24T02:30:12.814Z,99892.89
2022-10-24T02:40:20.721Z,99880.54
2022-10-24T02:50:24.367Z,99871.06
2022-10-24T03:00:27.533Z,99866.30
2022-10-24T03:10:30.745Z,99864.45
2022-10-24T03:20:36.235Z,99857.98
2022-10-24T03:30:39.427Z,99843.71
2022-10-24T03:40:42.584Z,99833.48
2022-10-24T03:50:47.005Z,99823.36
2022-10-24T04:00:51.012Z,99821.61
2022-10-24T04:10:54.174Z,99818.02
2022-10-24T04:20:57.371Z,99807.28
2022-10-24T04:31:00.992Z,99794.70
2022-10-24T04:41:07.299Z,99806.25
2022-10-24T04:51:16.262Z,99810.41
2022-10-24T05:01:23.032Z,99795.05
2022-10-24T05:11:26.480Z,99770.08
2022-10-24T05:21:29.827Z,99776.88
2022-10-24T05:33:40.874Z,99771.47
2022-10-24T05:43:44.160Z,99755.92
2022-10-24T05:53:47.439Z,99752.79
2022-10-24T06:03:51.029Z,99756.77
2022-10-24T06:13:55.759Z,99767.83
2022-10-24T06:24:00.970Z,99778.17
2022-10-24T06:34:04.311Z,99783.28
2022-10-24T06:44:10.840Z,99796.55
2022-10-24T06:54:15.437Z,99793.77
2022-10-24T07:04:18.999Z,99798.25
2022-10-24T07:14:22.734Z,99799.07
2022-10-24T07:24:26.040Z,99786.69
2022-10-24T07:34:29.409Z,99792.59
2022-10-24T07:44:32.664Z,99786.96
2022-10-24T07:54:37.344Z,99783.19
2022-10-24T08:04:41.642Z,99778.31
2022-10-24T08:14:48.239Z,99770.97
2022-10-24T08:24:51.434Z,99761.76
2022-10-24T08:34:54.614Z,99753.65
2022-10-24T08:44:57.703Z,99740.01
2022-10-24T08:55:25.079Z,99734.25
2022-10-24T09:05:48.652Z,99735.98
2022-10-24T09:15:51.754Z,99735.76
2022-10-24T09:25:58.419Z,99731.86
2022-10-24T09:36:04.620Z,99720.35
2022-10-24T09:46:15.619Z,99732.45
2022-10-24T09:56:19.729Z,99725.08
2022-10-24T10:06:22.866Z,99707.29
2022-10-24T10:16:38.771Z,99708.69
2022-10-24T10:26:41.799Z,99717.66
2022-10-24T10:36:51.904Z,99728.98
2022-10-24T10:47:36.358Z,99731.94
2022-10-24T10:57:49.636Z,99726.52
2022-10-24T11:08:21.286Z,99697.40
2022-10-24T11:18:35.345Z,99697.53
2022-10-24T11:28:56.616Z,99689.67
2022-10-24T11:39:16.675Z,99669.37
2022-10-24T12:24:30.476Z,99649.63
2022-10-24T12:34:48.801Z,99637.44
2022-10-24T12:45:12.926Z,99609.27
2022-10-24T12:55:39.735Z,99602.65
2022-10-24T13:06:53.787Z,99606.81
2022-10-24T13:17:02.988Z,99608.37
2022-10-24T13:27:12.986Z,99611.02
2022-10-24T13:37:27.463Z,99618.20
2022-10-24T13:47:45.671Z,99616.09
2022-10-24T13:58:06.624Z,99603.02
2022-10-24T14:08:19.606Z,99613.50
2022-10-24T14:18:23.532Z,99631.21
2022-10-24T14:28:30.714Z,99644.03
2022-10-24T14:38:35.521Z,99620.39
2022-10-24T14:48:45.343Z,99623.17
2022-10-24T14:58:51.983Z,99630.89
2022-10-24T15:09:10.966Z,99633.29
2022-10-24T15:19:18.298Z,99643.37
2022-10-24T15:29:23.451Z,99640.60
2022-10-24T15:39:26.829Z,99636.20
2022-10-24T15:49:31.781Z,99642.27
2022-10-24T15:59:35.019Z,99651.52
2022-10-24T16:09:38.477Z,99651.35
2022-10-24T16:19:41.568Z,99651.23
2022-10-24T16:29:44.739Z,99655.96
2022-10-24T16:39:48.028Z,99641.86
2022-10-24T16:49:59.407Z,99635.21
2022-10-24T17:00:06.325Z,99631.25
2022-10-24T17:10:14.915Z,99628.51
2022-10-24T17:20:18.317Z,99627.25
2022-10-24T17:30:25.876Z,99632.05
2022-10-24T17:40:46.588Z,99628.75
2022-10-24T17:50:56.873Z,99622.25
2022-10-24T18:01:01.419Z,99619.50
2022-10-24T18:11:09.299Z,99623.32
2022-10-24T18:21:19.825Z,99611.15
2022-10-24T18:31:27.024Z,99608.73
2022-10-24T18:41:43.284Z,99617.00
2022-10-24T18:52:03.156Z,99635.50
2022-10-24T19:02:26.811Z,99633.65
2022-10-24T19:12:30.247Z,99616.04
2022-10-24T19:22:33.848Z,99610.06
2022-10-24T19:32:44.757Z,99611.85
2022-10-24T19:42:59.885Z,99625.36
2022-10-24T19:53:15.921Z,99627.81
2022-10-24T20:03:19.028Z,99613.70
2022-10-24T20:13:22.790Z,99603.38
2022-10-24T20:23:26.419Z,99574.11
2022-10-24T20:33:29.689Z,99588.60
2022-10-24T20:43:32.762Z,99594.85
2022-10-24T20:53:36.597Z,99582.66
2022-10-24T21:03:40.687Z,99574.61
2022-10-24T21:13:46.607Z,99574.34
2022-10-24T21:24:00.961Z,99570.84
2022-10-24T21:34:10.118Z,99570.05
2022-10-24T21:44:14.786Z,99549.58
2022-10-24T21:54:21.782Z,99536.02
2022-10-24T22:04:25.304Z,99551.88
2022-10-24T22:14:28.381Z,99573.30
2022-10-24T22:24:31.533Z,99588.56
2022-10-24T22:34:34.909Z,99607.23
2022-10-24T22:44:38.459Z,99634.33
2022-10-24T22:54:45.218Z,99628.80
2022-10-24T23:05:01.259Z,99616.45
2022-10-24T23:15:07.174Z,99614.73
2022-10-24T23:25:11.441Z,99609.64
2022-10-24T23:35:16.606Z,99607.55
2022-10-24T23:45:23.346Z,99604.98
2022-10-24T23:55:26.864Z,99598.23
